createdAt,value
2023-04-10T00:01:07.657Z,82.20
2023-04-10T00:02:00.449Z,82.73
2023-04-10T00:04:28.139Z,82.15
2023-04-10T00:06:07.725Z,82.15
2023-04-10T00:06:55.391Z,81.91
2023-04-10T00:09:21.837Z,83.11
2023-04-10T00:11:07.673Z,83.11
2023-04-10T00:11:48.220Z,84.10
2023-04-10T00:14:14.544Z,84.16
2023-04-10T00:16:07.758Z,84.16
2023-04-10T00:16:41.016Z,85.30
2023-04-10T00:19:08.110Z,85.77
2023-04-10T00:21:07.857Z,85.77
2023-04-10T00:21:34.573Z,86.12
2023-04-10T00:24:01.019Z,86.95
2023-04-10T00:26:07.778Z,86.95
2023-04-10T00:26:27.501Z,85.97
2023-04-10T00:28:53.860Z,87.03
2023-04-10T00:31:07.847Z,87.03
2023-04-10T00:31:20.474Z,87.39
2023-04-10T00:33:46.998Z,86.83
2023-04-10T00:36:07.920Z,86.83
2023-04-10T00:36:13.453Z,86.14
2023-04-10T00:38:39.932Z,85.93
2023-04-10T00:41:06.814Z,87.02
2023-04-10T00:41:07.912Z,87.02
2023-04-10T00:43:33.266Z,86.82
2023-04-10T00:45:59.881Z,87.50
2023-04-10T00:46:08.576Z,87.50
2023-04-10T00:48:26.614Z,87.02
2023-04-10T00:50:53.102Z,86.32
2023-04-10T00:51:07.937Z,86.32
2023-04-10T00:53:19.446Z,86.50
2023-04-10T00:55:46.761Z,87.45
2023-04-10T00:56:07.989Z,87.45
2023-04-10T00:58:14.509Z,87.68
2023-04-10T01:00:44.057Z,87.91
2023-04-10T01:01:08.029Z,87.91
2023-04-10T01:03:12.798Z,87.63
2023-04-10T01:05:50.152Z,87.77
2023-04-10T01:06:08.048Z,87.77
2023-04-10T01:08:28.850Z,88.82
2023-04-10T01:11:01.629Z,88.89
2023-04-10T01:11:08.067Z,88.89
2023-04-10T01:13:49.478Z,88.32
2023-04-10T01:16:08.127Z,88.32
2023-04-10T01:16:22.213Z,89.01
2023-04-10T01:18:59.353Z,88.83
2023-04-10T01:21:08.236Z,88.83
2023-04-10T01:21:27.536Z,88.30
2023-04-10T01:24:07.377Z,88.09
2023-04-10T01:26:08.146Z,88.09
2023-04-10T01:27:09.933Z,88.43
2023-04-10T01:29:38.556Z,88.61
2023-04-10T01:31:08.243Z,88.61
2023-04-10T01:32:11.105Z,88.24
2023-04-10T01:34:44.413Z,88.13
2023-04-10T01:36:08.254Z,88.13
2023-04-10T01:37:24.537Z,88.42
2023-04-10T01:39:56.387Z,89.02
2023-04-10T01:41:08.257Z,89.02
2023-04-10T01:42:23.374Z,88.31
2023-04-10T01:44:52.331Z,88.64
2023-04-10T01:46:08.343Z,88.64
2023-04-10T01:47:19.848Z,88.48
2023-04-10T01:49:47.677Z,88.75
2023-04-10T01:51:08.352Z,88.75
2023-04-10T01:52:15.799Z,88.75
2023-04-10T01:54:45.447Z,88.12
2023-04-10T01:56:08.466Z,88.12
2023-04-10T01:57:14.951Z,89.25
2023-04-10T01:59:42.412Z,88.90
2023-04-10T02:01:10.291Z,88.90
2023-04-10T02:02:11.776Z,89.40
2023-04-10T02:04:39.109Z,89.88
2023-04-10T02:06:08.413Z,89.88
2023-04-10T02:07:29.395Z,88.99
2023-04-10T02:10:13.029Z,89.19
2023-04-10T02:11:08.464Z,89.19
2023-04-10T02:12:45.877Z,90.01
2023-04-10T02:15:12.836Z,90.44
2023-04-10T02:16:08.620Z,90.44
2023-04-10T02:17:40.470Z,90.47
2023-04-10T02:20:09.031Z,90.32
2023-04-10T02:21:08.600Z,90.32
2023-04-10T02:22:36.851Z,90.49
2023-04-10T02:25:05.927Z,90.37
2023-04-10T02:26:08.619Z,90.37
2023-04-10T02:27:36.513Z,90.44
2023-04-10T02:30:04.311Z,92.12
2023-04-10T02:31:08.567Z,92.12
2023-04-10T02:32:31.635Z,93.10
2023-04-10T02:34:58.091Z,93.50
2023-04-10T02:36:08.617Z,93.50
2023-04-10T02:37:24.554Z,93.86
2023-04-10T02:39:51.291Z,94.30
2023-04-10T02:41:08.677Z,94.30
2023-04-10T02:42:17.778Z,94.39
2023-04-10T02:44:44.838Z,94.11
2023-04-10T02:46:08.666Z,94.11
2023-04-10T02:47:11.283Z,93.71
2023-04-10T02:49:37.674Z,94.28
2023-04-10T02:51:08.731Z,94.28
2023-04-10T02:52:04.181Z,93.89
2023-04-10T02:54:30.813Z,94.18
2023-04-10T02:56:08.719Z,94.18
2023-04-10T02:56:57.762Z,94.32
2023-04-10T02:59:24.139Z,95.18
2023-04-10T03:01:08.731Z,95.18
2023-04-10T03:01:50.801Z,95.92
2023-04-10T03:04:17.409Z,95.93
2023-04-10T03:06:08.644Z,95.93
2023-04-10T03:06:43.897Z,95.88
2023-04-10T03:09:10.387Z,96.67
2023-04-10T03:11:08.664Z,96.67
2023-04-10T03:11:36.823Z,97.25
2023-04-10T03:14:03.664Z,98.01
2023-04-10T03:16:08.726Z,98.01
2023-04-10T03:16:30.413Z,97.29
2023-04-10T03:18:56.835Z,98.26
2023-04-10T03:21:08.724Z,98.26
2023-04-10T03:21:23.265Z,96.88
2023-04-10T03:23:49.589Z,97.58
2023-04-10T03:26:08.686Z,97.58
2023-04-10T03:26:16.137Z,98.01
2023-04-10T03:28:42.539Z,97.94
2023-04-10T03:31:09.803Z,98.96
2023-04-10T03:31:10.139Z,98.96
2023-04-10T03:33:36.370Z,98.95
2023-04-10T03:36:03.710Z,99.33
2023-04-10T03:36:08.712Z,99.33
2023-04-10T03:38:30.201Z,99.67
2023-04-10T03:40:56.596Z,100.00
2023-04-10T03:41:08.706Z,100.00
2023-04-10T03:43:25.047Z,99.43
2023-04-10T03:45:51.413Z,99.22
2023-04-10T03:46:08.653Z,99.22
2023-04-10T03:48:18.046Z,98.75
2023-04-10T03:50:44.459Z,98.73
2023-04-10T03:51:08.659Z,98.73
2023-04-10T03:53:11.005Z,100.00
2023-04-10T03:55:38.584Z,99.23
2023-04-10T03:56:08.693Z,99.23
2023-04-10T03:58:05.684Z,99.94
2023-04-10T04:00:32.615Z,100.00
2023-04-10T04:01:08.677Z,100.00
2023-04-10T04:03:00.919Z,100.00
2023-04-10T04:05:27.546Z,100.00
2023-04-10T04:06:08.670Z,100.00
2023-04-10T04:07:53.911Z,100.00
2023-04-10T04:10:20.343Z,99.58
2023-04-10T04:11:14.884Z,99.58
2023-04-10T04:12:46.714Z,99.72
2023-04-10T04:15:13.147Z,100.00
2023-04-10T04:16:08.650Z,100.00
2023-04-10T04:17:39.781Z,99.27
2023-04-10T04:20:06.909Z,99.72
2023-04-10T04:21:09.769Z,99.72
2023-04-10T04:22:33.329Z,99.28
2023-04-10T04:24:59.912Z,99.41
2023-04-10T04:26:08.661Z,99.41
2023-04-10T04:27:26.328Z,98.81
2023-04-10T04:29:52.706Z,99.03
2023-04-10T04:31:08.659Z,99.03
2023-04-10T04:32:19.193Z,98.37
2023-04-10T04:34:45.696Z,98.89
2023-04-10T04:36:08.705Z,98.89
2023-04-10T04:37:12.091Z,98.89
2023-04-10T04:39:38.520Z,98.90
2023-04-10T04:41:08.670Z,98.90
2023-04-10T04:42:04.918Z,98.80
2023-04-10T04:44:31.873Z,99.02
2023-04-10T04:46:08.674Z,99.02
2023-04-10T04:46:58.242Z,99.95
2023-04-10T04:49:24.553Z,98.89
2023-04-10T04:51:08.743Z,98.89
2023-04-10T04:51:50.944Z,99.19
2023-04-10T04:54:17.297Z,100.00
2023-04-10T04:56:08.723Z,100.00
2023-04-10T04:56:43.606Z,100.00
2023-04-10T04:59:10.168Z,99.74
2023-04-10T05:01:08.730Z,99.74
2023-04-10T05:01:36.595Z,100.00
2023-04-10T05:04:03.929Z,100.00
2023-04-10T05:06:08.679Z,100.00
2023-04-10T05:06:31.567Z,100.00
2023-04-10T05:08:57.957Z,100.00
2023-04-10T05:11:08.679Z,100.00
2023-04-10T05:11:24.465Z,100.00
2023-04-10T05:13:51.201Z,100.00
2023-04-10T05:16:08.713Z,100.00
2023-04-10T05:16:17.757Z,100.00
2023-04-10T05:18:44.407Z,100.00
2023-04-10T05:21:08.800Z,100.00
2023-04-10T05:21:11.054Z,99.62
2023-04-10T05:23:37.609Z,98.22
2023-04-10T05:26:04.090Z,97.24
2023-04-10T05:26:08.650Z,97.24
2023-04-10T05:28:30.648Z,97.09
2023-04-10T05:30:57.110Z,96.09
2023-04-10T05:31:08.733Z,96.09
2023-04-10T05:33:23.561Z,94.29
2023-04-10T05:35:49.988Z,94.62
2023-04-10T05:36:08.757Z,94.62
2023-04-10T05:38:16.361Z,94.10
2023-04-10T05:40:45.753Z,93.01
2023-04-10T05:41:08.690Z,93.01
2023-04-10T05:43:12.425Z,92.05
2023-04-10T05:45:38.903Z,90.70
2023-04-10T05:46:08.765Z,90.70
2023-04-10T05:48:07.769Z,89.14
2023-04-10T05:50:35.448Z,88.13
2023-04-10T05:51:08.679Z,88.13
2023-04-10T05:53:01.805Z,86.42
2023-04-10T05:55:31.382Z,85.79
2023-04-10T05:56:08.709Z,85.79
2023-04-10T05:57:57.829Z,84.23
2023-04-10T06:00:24.428Z,83.98
2023-04-10T06:01:08.674Z,83.98
2023-04-10T06:02:51.021Z,83.34
2023-04-10T06:05:17.587Z,83.98
2023-04-10T06:06:08.661Z,83.98
2023-04-10T06:07:44.033Z,83.01
2023-04-10T06:10:10.957Z,82.55
2023-04-10T06:11:08.680Z,82.55
2023-04-10T06:12:37.383Z,81.89
2023-04-10T06:15:04.058Z,81.22
2023-04-10T06:16:08.733Z,81.22
2023-04-10T06:17:30.825Z,80.57
2023-04-10T06:19:59.475Z,80.24
2023-04-10T06:21:08.831Z,80.24
2023-04-10T06:22:26.764Z,79.61
2023-04-10T06:24:53.128Z,79.41
2023-04-10T06:26:08.672Z,79.41
2023-04-10T06:27:19.517Z,78.31
2023-04-10T06:29:46.085Z,77.72
2023-04-10T06:31:08.686Z,77.72
2023-04-10T06:32:12.480Z,76.27
2023-04-10T06:34:38.796Z,74.69
2023-04-10T06:36:08.754Z,74.69
2023-04-10T06:37:05.372Z,73.99
2023-04-10T06:39:31.749Z,73.28
2023-04-10T06:41:08.995Z,73.28
2023-04-10T06:41:58.173Z,71.82
2023-04-10T06:44:24.525Z,70.88
2023-04-10T06:46:08.693Z,70.88
2023-04-10T06:46:50.994Z,69.47
2023-04-10T06:49:17.446Z,68.53
2023-04-10T06:51:08.683Z,68.53
2023-04-10T06:51:45.852Z,67.91
2023-04-10T06:54:12.179Z,66.78
2023-04-10T06:56:08.706Z,66.78
2023-04-10T06:56:38.541Z,66.85
2023-04-10T06:59:05.218Z,65.93
2023-04-10T07:01:08.731Z,65.93
2023-04-10T07:01:31.975Z,64.82
2023-04-10T07:03:58.473Z,64.18
2023-04-10T07:06:08.688Z,64.18
2023-04-10T07:06:27.473Z,62.85
2023-04-10T07:08:54.066Z,62.77
2023-04-10T07:11:08.705Z,62.77
2023-04-10T07:11:20.604Z,62.38
2023-04-10T07:13:53.732Z,61.89
2023-04-10T07:16:08.732Z,61.89
2023-04-10T07:16:20.461Z,61.04
2023-04-10T07:18:47.526Z,61.03
2023-04-10T07:21:08.789Z,61.03
2023-04-10T07:21:14.324Z,60.14
2023-04-10T07:23:40.924Z,59.75
2023-04-10T07:26:07.491Z,59.40
2023-04-10T07:26:08.673Z,59.40
2023-04-10T07:28:33.908Z,58.88
2023-04-10T07:31:00.646Z,59.20
2023-04-10T07:31:08.699Z,59.20
2023-04-10T07:33:27.073Z,58.84
2023-04-10T07:35:53.581Z,58.71
2023-04-10T07:36:08.796Z,58.71
2023-04-10T07:38:21.002Z,59.01
2023-04-10T07:40:47.711Z,58.73
2023-04-10T07:41:08.672Z,58.73
2023-04-10T07:43:14.148Z,58.14
2023-04-10T07:45:41.527Z,58.13
2023-04-10T07:46:08.780Z,58.13
2023-04-10T07:48:08.187Z,58.10
2023-04-10T07:50:36.106Z,58.00
2023-04-10T07:51:08.689Z,58.00
2023-04-10T07:53:07.562Z,58.10
2023-04-10T07:55:42.205Z,58.08
2023-04-10T07:56:08.696Z,58.08
2023-04-10T07:58:08.666Z,57.13
2023-04-10T08:00:37.475Z,56.45
2023-04-10T08:01:08.736Z,56.45
2023-04-10T08:03:05.212Z,56.48
2023-04-10T08:05:31.972Z,55.81
2023-04-10T08:06:08.668Z,55.81
2023-04-10T08:07:59.001Z,55.82
2023-04-10T08:10:25.632Z,55.16
2023-04-10T08:11:08.717Z,55.16
2023-04-10T08:12:51.988Z,54.09
2023-04-10T08:15:18.472Z,54.47
2023-04-10T08:16:08.696Z,54.47
2023-04-10T08:17:44.945Z,54.29
2023-04-10T08:20:11.957Z,54.42
2023-04-10T08:21:08.716Z,54.42
2023-04-10T08:22:38.441Z,54.29
2023-04-10T08:25:05.325Z,54.20
2023-04-10T08:26:08.711Z,54.20
2023-04-10T08:27:31.740Z,54.21
2023-04-10T08:29:58.163Z,54.04
2023-04-10T08:31:08.734Z,54.04
2023-04-10T08:32:26.547Z,53.65
2023-04-10T08:34:53.060Z,53.52
2023-04-10T08:36:08.706Z,53.52
2023-04-10T08:37:21.288Z,52.86
2023-04-10T08:39:47.829Z,52.47
2023-04-10T08:41:08.700Z,52.47
2023-04-10T08:42:14.412Z,52.43
2023-04-10T08:44:41.704Z,51.10
2023-04-10T08:46:08.748Z,51.10
2023-04-10T08:47:08.719Z,51.21
2023-04-10T08:49:47.667Z,50.92
2023-04-10T08:51:08.988Z,50.92
2023-04-10T08:52:22.657Z,51.65
2023-04-10T08:54:53.786Z,50.99
2023-04-10T08:56:08.720Z,50.99
2023-04-10T08:57:21.176Z,50.85
2023-04-10T08:59:48.825Z,50.35
2023-04-10T09:01:08.693Z,50.35
2023-04-10T09:02:15.768Z,50.20
2023-04-10T09:04:50.369Z,49.95
2023-04-10T09:06:08.709Z,49.95
2023-04-10T09:07:17.479Z,50.21
2023-04-10T09:09:44.403Z,49.40
2023-04-10T09:11:08.701Z,49.40
2023-04-10T09:12:13.985Z,49.12
2023-04-10T09:14:40.871Z,49.16
2023-04-10T09:16:08.774Z,49.16
2023-04-10T09:17:21.913Z,48.67
2023-04-10T09:19:49.182Z,47.52
2023-04-10T09:21:08.735Z,47.52
2023-04-10T09:22:16.540Z,46.88
2023-04-10T09:24:44.787Z,47.36
2023-04-10T09:26:08.726Z,47.36
2023-04-10T09:27:26.946Z,47.09
2023-04-10T09:29:53.459Z,45.87
2023-04-10T09:31:08.757Z,45.87
2023-04-10T09:32:52.420Z,45.80
2023-04-10T09:35:19.921Z,46.41
2023-04-10T09:36:08.751Z,46.41
2023-04-10T09:37:46.831Z,45.80
2023-04-10T09:40:21.594Z,45.47
2023-04-10T09:41:08.779Z,45.47
2023-04-10T09:42:47.942Z,44.99
2023-04-10T09:45:14.605Z,44.85
2023-04-10T09:46:08.796Z,44.85
2023-04-10T09:47:41.008Z,44.99
2023-04-10T09:50:08.021Z,44.76
2023-04-10T09:51:08.701Z,44.76
2023-04-10T09:52:35.258Z,44.98
2023-04-10T09:55:06.197Z,44.39
2023-04-10T09:56:08.720Z,44.39
2023-04-10T09:57:34.774Z,44.94
2023-04-10T10:00:04.407Z,44.37
2023-04-10T10:01:08.788Z,44.37
2023-04-10T10:02:34.273Z,44.88
2023-04-10T10:05:01.488Z,43.88
2023-04-10T10:06:08.735Z,43.88
2023-04-10T10:07:29.634Z,43.20
2023-04-10T10:09:56.806Z,42.85
2023-04-10T10:11:08.804Z,42.85
2023-04-10T10:12:29.504Z,43.70
2023-04-10T10:15:05.547Z,43.84
2023-04-10T10:16:08.746Z,23
2023-04-10T10:17:43.249Z,43.05
2023-04-10T10:20:11.756Z,42.73
2023-04-10T10:21:08.774Z,42.73
2023-04-10T10:22:38.298Z,43.28
2023-04-10T10:25:05.092Z,43.23
2023-04-10T10:26:08.780Z,43.23
2023-04-10T10:27:32.662Z,42.61
2023-04-10T10:30:03.046Z,42.02
2023-04-10T10:31:08.771Z,42.02
2023-04-10T10:32:34.224Z,42.09
2023-04-10T10:35:01.973Z,43.02
2023-04-10T10:36:08.733Z,43.02
2023-04-10T10:37:29.783Z,42.38
2023-04-10T10:40:07.289Z,42.99
2023-04-10T10:41:08.711Z,42.99
2023-04-10T10:42:56.322Z,41.81
2023-04-10T10:45:34.513Z,42.40
2023-04-10T10:46:08.778Z,42.40
2023-04-10T10:48:01.075Z,42.11
2023-04-10T10:50:51.273Z,41.57
2023-04-10T10:51:08.736Z,41.57
2023-04-10T10:53:37.882Z,41.51
2023-04-10T10:56:19.390Z,41.44
2023-04-10T10:56:19.781Z,41.44
2023-04-10T10:58:54.493Z,41.55
2023-04-10T11:01:10.294Z,41.55
2023-04-10T11:01:22.233Z,41.56
2023-04-10T11:03:48.918Z,41.64
2023-04-10T11:06:08.792Z,41.64
2023-04-10T11:06:19.501Z,42.04
2023-04-10T11:08:47.980Z,41.88
2023-04-10T11:11:08.746Z,41.88
2023-04-10T11:11:16.036Z,41.11
2023-04-10T11:13:52.088Z,41.12
2023-04-10T11:16:08.757Z,41.12
2023-04-10T11:16:20.034Z,40.65
2023-04-10T11:18:47.292Z,41.40
2023-04-10T11:21:08.774Z,41.40
2023-04-10T11:21:22.604Z,41.60
2023-04-10T11:23:55.614Z,41.53
2023-04-10T11:26:08.725Z,41.53
2023-04-10T11:26:41.163Z,41.36
2023-04-10T11:29:19.646Z,41.46
2023-04-10T11:31:08.742Z,41.46
2023-04-10T11:32:00.546Z,41.22
2023-04-10T11:34:30.955Z,41.62
2023-04-10T11:36:08.758Z,41.62
2023-04-10T11:37:01.168Z,40.77
2023-04-10T11:39:30.501Z,40.73
2023-04-10T11:41:08.735Z,40.73
2023-04-10T11:41:57.687Z,40.25
2023-04-10T11:44:39.438Z,41.47
2023-04-10T11:46:08.811Z,41.47
2023-04-10T11:47:06.554Z,42.08
2023-04-10T11:49:34.496Z,42.15
2023-04-10T11:51:08.762Z,42.15
2023-04-10T11:52:01.315Z,42.12
2023-04-10T11:54:29.520Z,42.65
2023-04-10T11:56:08.758Z,42.65
2023-04-10T11:56:57.982Z,42.44
2023-04-10T11:59:25.341Z,41.58
2023-04-10T12:01:08.726Z,41.58
2023-04-10T12:01:56.162Z,41.38
2023-04-10T12:04:24.063Z,41.17
2023-04-10T12:06:08.778Z,41.17
2023-04-10T12:06:52.775Z,42.12
2023-04-10T12:09:20.909Z,41.80
2023-04-10T12:11:08.724Z,41.80
2023-04-10T12:11:52.996Z,41.72
2023-04-10T12:14:22.030Z,41.00
2023-04-10T12:16:08.752Z,41.00
2023-04-10T12:16:49.621Z,40.87
2023-04-10T12:19:19.335Z,41.81
2023-04-10T12:21:09.021Z,41.81
2023-04-10T12:21:46.407Z,41.21
2023-04-10T12:24:13.092Z,41.12
2023-04-10T12:26:08.718Z,41.12
2023-04-10T12:26:47.711Z,41.32
2023-04-10T12:29:14.138Z,40.84
2023-04-10T12:31:08.815Z,40.84
2023-04-10T12:31:40.835Z,40.14
2023-04-10T12:34:09.824Z,40.21
2023-04-10T12:36:08.751Z,40.21
2023-04-10T12:36:37.444Z,39.27
2023-04-10T12:39:05.274Z,39.16
2023-04-10T12:41:08.759Z,39.16
2023-04-10T12:41:33.813Z,38.72
2023-04-10T12:44:10.369Z,38.25
2023-04-10T12:46:08.838Z,38.25
2023-04-10T12:46:37.107Z,37.94
2023-04-10T12:49:18.126Z,36.18
2023-04-10T12:51:08.754Z,36.18
2023-04-10T12:51:52.406Z,36.72
2023-04-10T12:54:32.156Z,36.39
2023-04-10T12:56:08.761Z,36.39
2023-04-10T12:56:59.203Z,34.41
2023-04-10T12:59:26.629Z,33.91
2023-04-10T13:01:08.745Z,33.91
2023-04-10T13:01:53.805Z,34.83
2023-04-10T13:04:20.436Z,34.50
2023-04-10T13:06:08.790Z,34.50
2023-04-10T13:06:48.713Z,33.98
2023-04-10T13:09:16.371Z,33.85
2023-04-10T13:11:08.731Z,33.85
2023-04-10T13:11:43.377Z,34.08
2023-04-10T13:14:10.977Z,34.84
2023-04-10T13:16:08.808Z,34.84
2023-04-10T13:16:38.046Z,34.61
2023-04-10T13:19:04.446Z,34.27
2023-04-10T13:21:08.825Z,34.27
2023-04-10T13:21:30.971Z,33.32
2023-04-10T13:23:58.104Z,34.31
2023-04-10T13:26:08.744Z,34.31
2023-04-10T13:26:24.679Z,33.85
2023-04-10T13:28:51.093Z,33.46
2023-04-10T13:31:08.842Z,33.46
2023-04-10T13:31:17.616Z,33.94
2023-04-10T13:33:47.794Z,33.31
2023-04-10T13:36:08.801Z,33.31
2023-04-10T13:36:15.435Z,33.98
2023-04-10T13:38:42.193Z,34.01
2023-04-10T13:41:08.772Z,34.38
2023-04-10T13:41:08.917Z,34.38
2023-04-10T13:43:36.536Z,34.76
2023-04-10T13:46:02.917Z,34.36
2023-04-10T13:46:08.766Z,34.36
2023-04-10T13:48:37.294Z,34.56
2023-04-10T13:51:06.430Z,33.75
2023-04-10T13:51:08.800Z,33.75
2023-04-10T13:53:32.929Z,34.46
2023-04-10T13:55:59.628Z,34.18
2023-04-10T13:56:08.742Z,34.18
2023-04-10T13:58:28.503Z,33.37
2023-04-10T14:00:55.021Z,32.29
2023-04-10T14:01:08.828Z,32.29
2023-04-10T14:03:21.640Z,33.35
2023-04-10T14:05:48.363Z,32.98
2023-04-10T14:06:08.756Z,32.98
2023-04-10T14:08:15.850Z,32.51
2023-04-10T14:10:42.192Z,33.64
2023-04-10T14:11:08.861Z,33.64
2023-04-10T14:13:09.208Z,33.14
2023-04-10T14:15:35.854Z,33.85
2023-04-10T14:16:08.769Z,33.85
2023-04-10T14:18:02.501Z,33.80
2023-04-10T14:20:28.995Z,33.33
2023-04-10T14:21:08.812Z,33.33
2023-04-10T14:22:55.450Z,34.28
2023-04-10T14:25:21.901Z,34.72
2023-04-10T14:26:08.794Z,34.72
2023-04-10T14:27:48.301Z,34.22
2023-04-10T14:30:14.889Z,34.77
2023-04-10T14:31:08.758Z,34.77
2023-04-10T14:32:41.674Z,35.04
2023-04-10T14:35:08.674Z,34.57
2023-04-10T14:36:09.116Z,34.57
2023-04-10T14:37:35.083Z,34.14
2023-04-10T14:40:01.561Z,34.37
2023-04-10T14:41:08.764Z,34.37
2023-04-10T14:42:28.455Z,34.42
2023-04-10T14:46:08.750Z,34.20
2023-04-10T14:47:48.650Z,34.05
2023-04-10T14:50:15.074Z,34.22
2023-04-10T14:51:08.743Z,34.22
2023-04-10T14:52:41.510Z,33.46
2023-04-10T14:55:08.126Z,33.61
2023-04-10T14:56:08.749Z,33.61
2023-04-10T14:57:34.429Z,34.74
2023-04-10T15:00:01.562Z,35.06
2023-04-10T15:01:08.827Z,35.06
2023-04-10T15:02:29.147Z,35.62
2023-04-10T15:04:55.705Z,35.47
2023-04-10T15:06:08.782Z,35.47
2023-04-10T15:07:22.381Z,35.77
2023-04-10T15:09:48.766Z,36.45
2023-04-10T15:11:08.749Z,36.45
2023-04-10T15:12:15.297Z,36.94
2023-04-10T15:16:09.826Z,37.40
2023-04-10T15:17:36.034Z,37.12
2023-04-10T15:20:04.841Z,37.38
2023-04-10T15:21:08.848Z,37.38
2023-04-10T15:22:31.211Z,37.97
2023-04-10T15:24:57.648Z,38.01
2023-04-10T15:26:08.804Z,38.01
2023-04-10T15:27:24.741Z,38.06
2023-04-10T15:29:51.241Z,38.70
2023-04-10T15:31:08.785Z,38.70
2023-04-10T15:32:17.738Z,38.87
2023-04-10T15:34:44.557Z,39.44
2023-04-10T15:36:08.784Z,39.44
2023-04-10T15:37:11.556Z,39.61
2023-04-10T15:39:37.919Z,40.04
2023-04-10T15:41:08.762Z,40.04
2023-04-10T15:42:05.971Z,40.28
2023-04-10T15:44:32.473Z,40.71
2023-04-10T15:46:08.765Z,40.71
2023-04-10T15:46:58.860Z,40.66
2023-04-10T15:49:36.286Z,41.28
2023-04-10T15:51:08.791Z,41.28
2023-04-10T15:52:07.935Z,41.26
2023-04-10T15:54:35.130Z,41.78
2023-04-10T15:56:08.763Z,41.78
2023-04-10T15:57:02.288Z,41.87
2023-04-10T15:59:29.013Z,42.53
2023-04-10T16:01:08.805Z,42.53
2023-04-10T16:01:55.627Z,42.64
2023-04-10T16:04:22.283Z,42.78
2023-04-10T16:06:08.769Z,42.78
2023-04-10T16:06:49.008Z,42.87
2023-04-10T16:09:25.448Z,43.95
2023-04-10T16:11:08.765Z,43.95
2023-04-10T16:11:53.215Z,46.29
2023-04-10T16:14:19.674Z,49.71
2023-04-10T16:16:08.831Z,49.71
2023-04-10T16:16:46.368Z,52.34
2023-04-10T16:19:12.817Z,54.29
2023-04-10T16:21:08.882Z,54.29
2023-04-10T16:21:39.480Z,56.38
2023-04-10T16:24:06.057Z,57.89
2023-04-10T16:26:08.790Z,57.89
2023-04-10T16:26:32.530Z,59.55
2023-04-10T16:28:58.986Z,60.33
2023-04-10T16:31:08.831Z,60.33
2023-04-10T16:31:25.460Z,62.02
2023-04-10T16:33:52.007Z,62.66
2023-04-10T16:36:08.784Z,62.66
2023-04-10T16:36:18.421Z,62.07
2023-04-10T16:38:45.491Z,63.65
2023-04-10T16:41:08.771Z,63.65
2023-04-10T16:41:12.528Z,66.70
2023-04-10T16:43:39.109Z,68.04
2023-04-10T16:46:05.914Z,68.41
2023-04-10T16:46:08.805Z,68.41
2023-04-10T16:48:34.270Z,69.09
2023-04-10T16:51:06.065Z,70.22
2023-04-10T16:51:08.826Z,70.22
2023-04-10T16:53:35.712Z,70.86
2023-04-10T16:56:04.447Z,70.71
2023-04-10T16:56:08.785Z,70.71
2023-04-10T16:58:34.041Z,71.19
2023-04-10T17:01:00.679Z,70.05
2023-04-10T17:01:11.010Z,70.05
2023-04-10T17:03:27.208Z,68.11
2023-04-10T17:05:53.714Z,67.69
2023-04-10T17:06:08.792Z,67.69
2023-04-10T17:08:20.202Z,66.71
2023-04-10T17:10:46.540Z,66.07
2023-04-10T17:11:08.792Z,66.07
2023-04-10T17:13:12.872Z,66.88
2023-04-10T17:15:39.254Z,67.20
2023-04-10T17:16:09.128Z,67.20
2023-04-10T17:18:05.757Z,66.63
2023-04-10T17:20:35.912Z,65.89
2023-04-10T17:21:08.789Z,65.89
2023-04-10T17:23:02.324Z,66.45
2023-04-10T17:25:28.778Z,66.18
2023-04-10T17:26:08.769Z,66.18
2023-04-10T17:27:55.202Z,66.28
2023-04-10T17:30:21.585Z,65.52
2023-04-10T17:31:08.839Z,65.52
2023-04-10T17:32:49.150Z,64.80
2023-04-10T17:35:15.916Z,65.46
2023-04-10T17:36:08.833Z,65.46
2023-04-10T17:37:42.420Z,65.72
2023-04-10T17:40:09.383Z,65.50
2023-04-10T17:41:08.761Z,65.50
2023-04-10T17:42:35.694Z,66.35
2023-04-10T17:45:02.149Z,66.73
2023-04-10T17:46:08.776Z,66.73
2023-04-10T17:47:28.986Z,66.14
2023-04-10T17:49:55.816Z,65.31
2023-04-10T17:51:08.775Z,65.31
2023-04-10T17:52:22.672Z,66.00
2023-04-10T17:54:49.080Z,67.05
2023-04-10T17:56:08.779Z,67.05
2023-04-10T17:57:15.386Z,68.52
2023-04-10T17:59:41.731Z,71.35
2023-04-10T18:01:08.825Z,71.35
2023-04-10T18:02:08.085Z,72.08
2023-04-10T18:04:36.883Z,73.58
2023-04-10T18:06:08.764Z,73.58
2023-04-10T18:07:03.583Z,74.12
2023-04-10T18:09:29.974Z,74.92
2023-04-10T18:11:08.771Z,74.92
2023-04-10T18:11:56.344Z,75.77
2023-04-10T18:14:22.795Z,80.55
2023-04-10T18:16:08.794Z,80.55
2023-04-10T18:16:49.321Z,81.89
2023-04-10T18:19:15.653Z,82.67
2023-04-10T18:21:08.801Z,82.67
2023-04-10T18:21:42.062Z,84.36
2023-04-10T18:24:12.100Z,85.38
2023-04-10T18:26:08.764Z,85.38
2023-04-10T18:26:38.502Z,87.12
2023-04-10T18:29:04.974Z,87.59
2023-04-10T18:31:08.840Z,87.59
2023-04-10T18:31:31.495Z,88.02
2023-04-10T18:34:07.101Z,88.83
2023-04-10T18:36:08.851Z,88.83
2023-04-10T18:36:35.225Z,87.65
2023-04-10T18:39:01.788Z,86.65
2023-04-10T18:41:08.811Z,86.65
2023-04-10T18:41:28.253Z,86.40
2023-04-10T18:44:04.326Z,84.14
2023-04-10T18:46:08.911Z,84.14
2023-04-10T18:46:32.624Z,84.15
2023-04-10T18:49:00.672Z,85.39
2023-04-10T18:51:08.775Z,85.39
2023-04-10T18:51:27.729Z,86.24
2023-04-10T18:53:54.290Z,86.41
2023-04-10T18:56:08.786Z,86.41
2023-04-10T18:56:20.925Z,89.57
2023-04-10T18:58:49.868Z,92.97
2023-04-10T19:01:08.979Z,92.97
2023-04-10T19:01:17.880Z,96.21
2023-04-10T19:03:46.436Z,98.10
2023-04-10T19:06:08.793Z,98.10
2023-04-10T19:06:14.398Z,97.98
2023-04-10T19:08:40.778Z,97.53
2023-04-10T19:11:07.798Z,97.95
2023-04-10T19:11:08.806Z,97.95
2023-04-10T19:13:34.409Z,99.07
2023-04-10T19:16:03.672Z,100.00
2023-04-10T19:16:08.815Z,100.00
2023-04-10T19:18:30.822Z,99.94
2023-04-10T19:20:57.214Z,100.00
2023-04-10T19:21:08.850Z,100.00
2023-04-10T19:23:26.134Z,100.00
2023-04-10T19:25:54.317Z,100.00
2023-04-10T19:26:08.797Z,100.00
2023-04-10T19:28:23.771Z,100.00
2023-04-10T19:30:50.280Z,100.00
2023-04-10T19:31:08.865Z,100.00
2023-04-10T19:33:17.319Z,100.00
2023-04-10T19:35:43.805Z,100.00
2023-04-10T19:36:08.901Z,100.00
2023-04-10T19:38:10.273Z,100.00
2023-04-10T19:40:37.065Z,100.00
2023-04-10T19:41:08.808Z,100.00
2023-04-10T19:43:03.512Z,100.00
2023-04-10T19:45:32.040Z,100.00
2023-04-10T19:46:08.797Z,100.00
2023-04-10T19:47:58.697Z,100.00
2023-04-10T19:50:25.113Z,100.00
2023-04-10T19:51:08.806Z,100.00
2023-04-10T19:52:51.720Z,100.00
2023-04-10T19:55:19.077Z,100.00
2023-04-10T19:56:08.789Z,100.00
2023-04-10T19:57:45.795Z,100.00
2023-04-10T20:00:12.727Z,100.00
2023-04-10T20:01:08.947Z,100.00
2023-04-10T20:02:39.817Z,100.00
2023-04-10T20:05:06.886Z,100.00
2023-04-10T20:06:08.819Z,100.00
2023-04-10T20:07:33.365Z,100.00
2023-04-10T20:10:02.565Z,100.00
2023-04-10T20:11:08.806Z,100.00
2023-04-10T20:12:33.133Z,100.00
2023-04-10T20:15:00.642Z,100.00
2023-04-10T20:16:08.892Z,100.00
2023-04-10T20:17:27.950Z,100.00
2023-04-10T20:19:54.644Z,100.00
2023-04-10T20:21:08.856Z,100.00
2023-04-10T20:22:21.313Z,100.00
2023-04-10T20:24:47.658Z,100.00
2023-04-10T20:26:08.767Z,100.00
2023-04-10T20:27:17.489Z,100.00
2023-04-10T20:29:44.074Z,100.00
2023-04-10T20:31:08.807Z,100.00
2023-04-10T20:32:10.552Z,100.00
2023-04-10T20:34:37.141Z,100.00
2023-04-10T20:36:08.853Z,100.00
2023-04-10T20:37:04.701Z,100.00
2023-04-10T20:39:32.842Z,100.00
2023-04-10T20:41:08.794Z,100.00
2023-04-10T20:41:59.336Z,100.00
2023-04-10T20:44:25.819Z,100.00
2023-04-10T20:46:08.844Z,100.00
2023-04-10T20:46:52.247Z,100.00
2023-04-10T20:49:18.699Z,100.00
2023-04-10T20:51:08.794Z,100.00
2023-04-10T20:51:45.122Z,100.00
2023-04-10T20:54:11.712Z,100.00
2023-04-10T20:56:08.805Z,100.00
2023-04-10T20:56:43.359Z,100.00
2023-04-10T20:59:10.494Z,100.00
2023-04-10T21:01:08.890Z,100.00
2023-04-10T21:01:37.047Z,100.00
2023-04-10T21:04:03.666Z,100.00
2023-04-10T21:06:08.848Z,100.00
2023-04-10T21:06:33.130Z,100.00
2023-04-10T21:08:59.588Z,100.00
2023-04-10T21:11:08.858Z,100.00
2023-04-10T21:11:27.141Z,100.00
2023-04-10T21:13:54.075Z,100.00
2023-04-10T21:16:08.912Z,100.00
2023-04-10T21:16:20.573Z,100.00